Time;durP1;ratioP1;P1;durP2;ratioP2;P2;SDS_P1;SDS_P2;PMS_P1;PMS_P2;Temp;Humidity;BMP_temperature;BMP_pressure;BME280_temperature;BME280_humidity;BME280_pressure;Samples;Min_cycle;Max_cycle;Signal;HPM_P1;HPM_P2
2021/06/09 00:00:40;;;;;;;9.53;4.03;;;;;;;;;;352976;148;860420;-56
2021/06/09 00:01:42;;;;;;;15.36;4.34;;;;;;;;;;350566;149;857203;-56
2021/06/09 00:02:44;;;;;;;4.99;3.98;;;;;;;;;;355661;149;861083;-57
2021/06/09 00:03:45;;;;;;;7.61;4.86;;;;;;;;;;353158;148;865585;-56
2021/06/09 00:04:47;;;;;;;6.25;4.49;;;;;;;;;;357570;148;857943;-57
2021/06/09 00:05:49;;;;;;;8.49;4.38;;;;;;;;;;355446;149;857293;-58
2021/06/09 00:06:50;;;;;;;5.93;4.61;;;;;;;;;;357587;148;857249;-56
2021/06/09 00:07:52;;;;;;;6.41;4.98;;;;;;;;;;357962;148;857385;-57
2021/06/09 00:08:54;;;;;;;6.62;5.47;;;;;;;;;;355177;148;859036;-58
2021/06/09 00:09:55;;;;;;;11.22;4.74;;;;;;;;;;356498;148;858102;-56
2021/06/09 00:10:57;;;;;;;12.24;4.59;;;;;;;;;;353989;148;858707;-57
2021/06/09 00:11:59;;;;;;;7.71;4.89;;;;;;;;;;353408;148;866279;-56
2021/06/09 00:13:00;;;;;;;7.14;4.39;;;;;;;;;;354092;148;857401;-56
2021/06/09 00:14:02;;;;;;;6.92;4.84;;;;;;;;;;350436;148;864783;-56
2021/06/09 00:15:05;;;;;;;11.04;4.36;;;;;;;;;;357993;148;857387;-56
2021/06/09 00:16:11;;;;;;;4.92;4.11;;;;;;;;;;355054;149;857238;-57
2021/06/09 00:17:12;;;;;;;7.16;4.01;;;;;;;;;;351962;148;857306;-56
2021/06/09 00:18:14;;;;;;;13.26;4.37;;;;;;;;;;354371;148;857464;-56
2021/06/09 00:19:15;;;;;;;7.46;4.28;;;;;;;;;;356723;148;859005;-56
2021/06/09 00:20:19;;;;;;;5.23;4.17;;;;;;;;;;352188;148;864226;-55
2021/06/09 00:21:21;;;;;;;5.08;3.98;;;;;;;;;;352110;148;857859;-55
2021/06/09 00:22:23;;;;;;;9.34;4.38;;;;;;;;;;356576;148;858555;-57
2021/06/09 00:23:29;;;;;;;10.91;4.53;;;;;;;;;;356683;148;865556;-55
2021/06/09 00:24:31;;;;;;;7.45;4.23;;;;;;;;;;357047;148;859087;-56
2021/06/09 00:25:33;;;;;;;5.74;4.31;;;;;;;;;;359521;148;857881;-56
2021/06/09 00:26:35;;;;;;;8.81;4.17;;;;;;;;;;352757;148;864781;-56
2021/06/09 00:27:36;;;;;;;5.52;3.92;;;;;;;;;;352577;148;857416;-56
2021/06/09 00:28:38;;;;;;;8.54;4.45;;;;;;;;;;357831;148;857956;-57
2021/06/09 00:29:40;;;;;;;9.36;4.11;;;;;;;;;;349837;149;859101;-57
2021/06/09 00:30:42;;;;;;;8.14;4.01;;;;;;;;;;352179;150;866678;-57
2021/06/09 00:31:44;;;;;;;6.16;4.26;;;;;;;;;;355547;151;859087;-57
2021/06/09 00:32:45;;;;;;;8.06;4.46;;;;;;;;;;352412;148;858284;-58
2021/06/09 00:33:47;;;;;;;10.09;4.49;;;;;;;;;;350869;151;858352;-58
2021/06/09 00:34:49;;;;;;;9.94;3.97;;;;;;;;;;353360;149;859333;-58
2021/06/09 00:35:53;;;;;;;9.23;4.31;;;;;;;;;;350394;151;857339;-58
2021/06/09 00:36:55;;;;;;;5.12;4.16;;;;;;;;;;352919;151;857381;-58
2021/06/09 00:51:18;;;;;;;8.40;4.88;;;;;;;15.23;66.59;99357.36;374761;142;882269;-57
2021/06/09 00:52:24;;;;;;;8.11;5.11;;;;;;;15.23;66.59;99357.36;364240;145;856901;-57
2021/06/09 00:53:33;;;;;;;6.92;4.55;;;;;;;15.23;66.59;99357.36;360354;148;860329;-57
2021/06/09 00:54:33;;;;;;;8.30;4.75;;;;;;;15.11;68.05;99364.72;363781;145;857260;-57
2021/06/09 00:55:35;;;;;;;5.29;4.79;;;;;;;15.12;67.96;99368.19;365401;145;857265;-58
2021/06/09 00:56:39;;;;;;;9.40;5.24;;;;;;;15.15;67.41;99365.48;364000;146;865767;-60
2021/06/09 00:57:41;;;;;;;5.82;5.29;;;;;;;15.15;67.41;99365.48;362392;145;858742;-57
2021/06/09 00:58:44;;;;;;;5.95;4.75;;;;;;;15.15;66.81;99358.48;362919;147;857280;-57
2021/06/09 00:59:45;;;;;;;6.75;4.46;;;;;;;;;;364522;145;859804;-58
2021/06/09 01:00:47;;;;;;;8.27;4.83;;;;;;;;;;360657;147;859024;-58
2021/06/09 01:01:49;;;;;;;10.26;4.76;;;;;;;;;;360959;148;858877;-58
2021/06/09 01:02:50;;;;;;;5.69;4.36;;;;;;;;;;365338;145;864805;-58
2021/06/09 01:03:52;;;;;;;5.94;4.52;;;;;;;;;;363529;147;865812;-57
2021/06/09 01:04:54;;;;;;;9.84;4.46;;;;;;;;;;365839;145;860470;-57
2021/06/09 01:05:55;;;;;;;10.89;4.56;;;;;;;;;;362916;145;866188;-57
2021/06/09 01:06:59;;;;;;;10.39;4.82;;;;;;;;;;364215;147;866110;-57
2021/06/09 01:08:05;;;;;;;5.82;5.12;;;;;;;;;;367277;145;859297;-58
2021/06/09 01:09:07;;;;;;;6.39;5.16;;;;;;;;;;362523;145;857408;-58
2021/06/09 01:10:10;;;;;;;5.69;5.14;;;;;;;;;;360592;148;857636;-58
2021/06/09 01:11:12;;;;;;;7.56;5.40;;;;;;;;;;356105;147;857394;-58
2021/06/09 01:12:14;;;;;;;6.65;5.79;;;;;;;;;;353342;147;866751;-58
2021/06/09 01:13:20;;;;;;;7.39;5.89;;;;;;;;;;356360;147;860460;-58
2021/06/09 01:14:22;;;;;;;8.52;5.78;;;;;;;;;;352820;152;859716;-57
2021/06/09 01:15:24;;;;;;;8.98;5.28;;;;;;;;;;358156;150;858054;-57
2021/06/09 01:16:27;;;;;;;11.64;4.71;;;;;;;;;;359759;147;859106;-57
2021/06/09 01:17:29;;;;;;;13.14;4.73;;;;;;;;;;357354;150;857418;-58
2021/06/09 01:18:31;;;;;;;9.30;4.09;;;;;;;;;;356456;148;858873;-58
2021/06/09 01:19:32;;;;;;;6.06;4.32;;;;;;;;;;356826;147;860054;-57
2021/06/09 01:20:36;;;;;;;8.91;4.89;;;;;;;;;;357388;148;865370;-57
2021/06/09 01:21:38;;;;;;;8.63;4.29;;;;;;;;;;359521;147;859025;-57
2021/06/09 01:22:40;;;;;;;5.89;4.45;;;;;;;;;;358929;150;858876;-57
2021/06/09 01:23:42;;;;;;;5.64;4.34;;;;;;;;;;354101;148;860262;-56
2021/06/09 01:24:43;;;;;;;9.13;4.09;;;;;;;;;;358872;147;864775;-58
2021/06/09 01:25:46;;;;;;;5.79;3.96;;;;;;;;;;359488;150;866451;-57
2021/06/09 01:26:48;;;;;;;6.29;3.68;;;;;;;;;;360502;147;857591;-57
2021/06/09 01:27:50;;;;;;;5.58;4.04;;;;;;;;;;358132;148;864885;-58
2021/06/09 01:28:53;;;;;;;5.18;3.59;;;;;;;;;;359246;150;864857;-57
2021/06/09 01:29:54;;;;;;;7.31;4.29;;;;;;;;;;357520;147;857824;-58
2021/06/09 01:30:56;;;;;;;5.99;3.83;;;;;;;;;;357963;147;859064;-58
2021/06/09 01:31:58;;;;;;;5.98;3.92;;;;;;;;;;358876;148;857341;-58
2021/06/09 01:32:59;;;;;;;11.47;4.78;;;;;;;;;;359055;148;857343;-58
2021/06/09 01:34:05;;;;;;;7.25;3.94;;;;;;;;;;359501;150;857269;-57
2021/06/09 01:35:07;;;;;;;5.67;4.01;;;;;;;;;;359137;147;859180;-58
2021/06/09 01:36:09;;;;;;;5.55;4.21;;;;;;;;;;359261;150;857324;-57
2021/06/09 01:37:11;;;;;;;4.94;3.67;;;;;;;;;;359688;147;857408;-60
2021/06/09 01:38:13;;;;;;;7.24;4.20;;;;;;;;;;358885;147;865198;-57
2021/06/09 01:39:15;;;;;;;10.05;4.55;;;;;;;;;;359508;149;866042;-57
2021/06/09 01:40:20;;;;;;;6.08;3.86;;;;;;;;;;358727;147;859998;-57
2021/06/09 01:41:23;;;;;;;6.17;3.71;;;;;;;;;;361185;147;857870;-57
2021/06/09 01:42:24;;;;;;;6.33;3.87;;;;;;;;;;352843;152;857362;-58
2021/06/09 01:43:26;;;;;;;9.19;3.78;;;;;;;;;;357357;147;860617;-58
2021/06/09 01:44:28;;;;;;;11.15;4.12;;;;;;;;;;357689;150;857714;-57
2021/06/09 01:45:33;;;;;;;4.87;3.56;;;;;;;;;;359383;147;857236;-59
2021/06/09 01:46:36;;;;;;;4.61;3.92;;;;;;;;;;358243;148;859147;-57
2021/06/09 01:47:38;;;;;;;13.84;4.69;;;;;;;;;;358119;150;857350;-57
2021/06/09 01:48:39;;;;;;;4.29;3.81;;;;;;;;;;358927;147;866184;-57
2021/06/09 01:49:43;;;;;;;7.79;3.67;;;;;;;;;;359189;150;858337;-57
2021/06/09 01:50:45;;;;;;;5.70;3.64;;;;;;;;;;358755;148;857916;-56
2021/06/09 01:51:46;;;;;;;5.85;3.98;;;;;;;;;;358110;147;857310;-56
2021/06/09 01:52:48;;;;;;;6.60;3.83;;;;;;;;;;359893;147;857218;-56
2021/06/09 01:53:50;;;;;;;6.78;4.11;;;;;;;;;;358677;147;857218;-56
2021/06/09 01:54:51;;;;;;;7.24;4.31;;;;;;;;;;365175;147;857772;-59
2021/06/09 01:55:54;;;;;;;5.66;4.03;;;;;;;;;;364699;147;859006;-56
2021/06/09 01:56:56;;;;;;;5.21;4.55;;;;;;;;;;357501;147;859218;-58
2021/06/09 01:57:58;;;;;;;4.73;4.24;;;;;;;;;;349900;150;857293;-59
2021/06/09 01:59:09;;;;;;;6.59;4.33;;;;;;;;;;351993;150;858289;-56
2021/06/09 02:00:13;;;;;;;10.81;4.26;;;;;;;;;;358447;148;859877;-56
2021/06/09 02:01:14;;;;;;;5.93;4.54;;;;;;;;;;359184;147;857877;-57
2021/06/09 02:02:16;;;;;;;10.42;4.16;;;;;;;;;;358261;147;859369;-57
2021/06/09 02:03:18;;;;;;;9.19;4.07;;;;;;;;;;355440;150;857408;-58
2021/06/09 02:04:19;;;;;;;4.59;4.16;;;;;;;;;;359766;147;857408;-56
2021/06/09 02:05:21;;;;;;;8.05;3.97;;;;;;;;;;359056;147;858012;-56
2021/06/09 02:06:24;;;;;;;4.56;3.75;;;;;;;;;;357915;148;858731;-56
2021/06/09 02:07:26;;;;;;;6.54;4.23;;;;;;;;;;357652;147;859048;-57
2021/06/09 02:08:28;;;;;;;6.09;4.29;;;;;;;;;;359403;150;865981;-57
2021/06/09 02:09:30;;;;;;;8.47;3.87;;;;;;;;;;359108;148;865614;-57
2021/06/09 02:10:33;;;;;;;5.02;4.04;;;;;;;;;;359446;147;859751;-57
2021/06/09 02:11:36;;;;;;;7.61;4.42;;;;;;;;;;358727;149;864918;-57
2021/06/09 02:12:39;;;;;;;4.67;3.77;;;;;;;;;;350538;150;864881;-56
2021/06/09 02:13:41;;;;;;;5.62;4.25;;;;;;;;;;345172;151;857788;-56
2021/06/09 02:14:42;;;;;;;3.99;3.66;;;;;;;;;;352148;151;859521;-56
2021/06/09 02:15:44;;;;;;;7.22;3.89;;;;;;;;;;349272;150;859060;-57
2021/06/09 02:16:47;;;;;;;7.58;3.90;;;;;;;;;;351313;151;858593;-56
2021/06/09 02:18:08;;;;;;;4.21;3.82;;;;;;;;;;350332;152;860570;-57
2021/06/09 02:19:02;;;;;;;6.77;3.87;;;;;;;;;;350560;153;858659;-56
2021/06/09 02:20:05;;;;;;;5.24;4.19;;;;;;;;;;351355;153;857277;-57
2021/06/09 02:21:08;;;;;;;4.14;3.71;;;;;;;;;;350640;151;857242;-57
2021/06/09 02:22:09;;;;;;;4.87;3.31;;;;;;;;;;351989;153;858316;-56
2021/06/09 02:23:12;;;;;;;6.08;4.12;;;;;;;;;;351255;152;857541;-56
2021/06/09 02:24:13;;;;;;;4.64;3.71;;;;;;;;;;347866;151;865962;-57
2021/06/09 02:25:17;;;;;;;7.93;3.47;;;;;;;;;;350949;153;857979;-57
2021/06/09 02:26:20;;;;;;;5.81;3.76;;;;;;;;;;351799;150;860013;-58
2021/06/09 02:27:22;;;;;;;5.32;4.01;;;;;;;;;;351393;151;859325;-58
2021/06/09 02:28:24;;;;;;;6.37;3.64;;;;;;;;;;351291;152;857190;-57
2021/06/09 02:29:25;;;;;;;7.61;3.68;;;;;;;;;;350459;152;857755;-58
2021/06/09 02:30:28;;;;;;;5.37;3.51;;;;;;;;;;348279;153;857412;-58
2021/06/09 02:31:29;;;;;;;8.29;3.66;;;;;;;;;;352430;150;856140;-58
2021/06/09 02:32:31;;;;;;;8.62;4.18;;;;;;;;;;349734;151;856590;-58
2021/06/09 02:33:34;;;;;;;3.74;3.41;;;;;;;;;;354241;151;863829;-58
2021/06/09 02:34:37;;;;;;;4.14;3.65;;;;;;;;;;351855;152;856433;-57
2021/06/09 02:35:39;;;;;;;4.34;3.63;;;;;;;;;;352463;153;863650;-58
2021/06/09 02:36:41;;;;;;;9.70;3.81;;;;;;;;;;351874;150;856154;-57
2021/06/09 02:37:43;;;;;;;5.23;3.59;;;;;;;;;;352901;151;856083;-58
2021/06/09 02:38:45;;;;;;;6.01;3.84;;;;;;;;;;352556;153;863670;-58
2021/06/09 02:39:46;;;;;;;7.11;4.19;;;;;;;;;;351745;152;863780;-58
2021/06/09 02:40:49;;;;;;;6.36;3.93;;;;;;;;;;350741;152;856770;-58
2021/06/09 02:41:51;;;;;;;7.37;4.06;;;;;;;;;;352031;153;856167;-57
2021/06/09 02:42:53;;;;;;;6.14;3.83;;;;;;;;;;352046;152;856893;-58
2021/06/09 02:43:55;;;;;;;6.91;3.69;;;;;;;;;;352204;152;863661;-57
2021/06/09 02:44:57;;;;;;;4.57;3.87;;;;;;;;;;351427;152;856350;-57
2021/06/09 02:46:00;;;;;;;6.23;3.69;;;;;;;;;;350545;152;856245;-57
2021/06/09 02:47:02;;;;;;;3.83;3.53;;;;;;;;;;347303;151;856565;-57
2021/06/09 02:48:07;;;;;;;4.01;3.32;;;;;;;;;;349757;152;856289;-59
2021/06/09 02:51:01;;;;;;;6.59;3.88;;;;;;;15.13;66.30;99375.94;371880;141;878161;-56
2021/06/09 02:52:09;;;;;;;6.12;3.58;;;;;;;15.06;66.55;99390.11;363230;147;857372;-57
2021/06/09 02:53:21;;;;;;;9.18;3.52;;;;;;;15.06;66.26;99381.45;363269;145;865676;-57
2021/06/09 02:54:53;;;;;;;6.04;3.66;;;;;;;15.06;66.26;99381.45;363576;147;859586;-58
2021/06/09 02:56:25;;;;;;;8.34;3.76;;;;;;;15.02;66.66;99388.52;364832;145;857174;-59
2021/06/09 02:57:49;;;;;;;7.15;4.38;;;;;;;14.97;66.71;99383.48;361819;147;859021;-58
2021/06/09 02:59:27;;;;;;;6.07;4.17;;;;;;;14.97;67.23;99385.22;360546;145;857407;-59
2021/06/09 03:00:53;;;;;;;4.96;3.74;;;;;;;14.96;67.33;99388.73;365211;147;857296;-59
2021/06/09 03:02:10;;;;;;;5.28;3.73;;;;;;;14.95;67.48;99385.28;364855;145;857958;-59
2021/06/09 03:03:40;;;;;;;8.15;3.65;;;;;;;15.00;67.44;99387.72;361558;147;857730;-59
2021/06/09 03:04:53;;;;;;;7.62;3.58;;;;;;;15.04;67.86;99387.57;363041;145;857316;-58
2021/06/09 03:06:01;;;;;;;10.07;4.30;;;;;;;15.11;68.12;99390.80;361257;147;864888;-57
2021/06/09 03:07:25;;;;;;;9.38;3.81;;;;;;;15.19;67.63;99395.75;364653;145;859949;-57
2021/06/09 03:08:45;;;;;;;5.57;3.77;;;;;;;15.20;67.50;99397.45;363692;145;857153;-57
2021/06/09 03:09:56;;;;;;;7.43;3.86;;;;;;;15.26;67.56;99394.62;361059;145;857481;-58
2021/06/09 03:11:15;;;;;;;4.74;3.53;;;;;;;15.31;67.44;99400.52;364695;145;857248;-58
2021/06/09 03:12:25;;;;;;;5.92;4.08;;;;;;;15.31;67.44;99400.52;362021;146;858234;-58
2021/06/09 03:15:11;;;;;;;7.07;4.07;;;;;;;15.30;67.63;99401.42;362588;147;858530;-57
2021/06/09 03:16:15;;;;;;;6.84;4.81;;;;;;;15.33;67.90;99396.09;361132;145;859660;-58
2021/06/09 03:17:19;;;;;;;5.33;4.04;;;;;;;15.39;68.02;99399.39;362394;147;859665;-59
2021/06/09 03:18:26;;;;;;;7.49;4.32;;;;;;;15.42;67.83;99400.14;361380;146;856666;-56
2021/06/09 03:19:52;;;;;;;9.21;4.34;;;;;;;15.39;67.91;99394.17;361715;145;857384;-59
2021/06/09 03:21:09;;;;;;;10.91;3.66;;;;;;;15.37;67.95;99401.20;362618;144;857298;-58
2021/06/09 03:22:17;;;;;;;6.01;3.89;;;;;;;15.39;68.06;99399.39;362256;145;858329;-59
2021/06/09 03:23:32;;;;;;;10.45;4.03;;;;;;;15.39;68.37;99397.64;361172;145;857518;-59
2021/06/09 03:24:36;;;;;;;6.11;4.86;;;;;;;15.40;68.46;99401.09;363589;145;857793;-59
2021/06/09 03:25:49;;;;;;;6.91;5.35;;;;;;;15.40;68.46;99401.09;362010;147;859647;-60
2021/06/09 03:26:56;;;;;;;10.67;5.23;;;;;;;15.32;69.77;99402.22;352089;145;857295;-60
2021/06/09 03:28:20;;;;;;;11.83;5.27;;;;;;;15.37;70.19;99409.02;362785;146;857354;-59
2021/06/09 03:29:40;;;;;;;6.13;4.41;;;;;;;15.33;70.83;99405.66;363694;146;860024;-59
2021/06/09 03:30:43;;;;;;;;;;;;;;;15.34;71.29;99403.02;366299;145;858613;-60
2021/06/09 03:31:50;;;;;;;4.70;4.15;;;;;;;15.45;71.10;99410.46;363694;147;858209;-60
2021/06/09 03:33:00;;;;;;;5.70;4.37;;;;;;;15.55;71.62;99408.34;362007;145;859081;-59
2021/06/09 03:34:02;;;;;;;6.33;4.73;;;;;;;15.74;71.84;99402.43;364728;145;857189;-58
2021/06/09 03:35:31;;;;;;;7.66;4.68;;;;;;;15.99;71.43;99404.16;363936;146;859236;-58
2021/06/09 03:36:38;;;;;;;;;;;;;;;16.19;70.98;99398.13;364686;146;864026;-59
2021/06/09 03:37:41;;;;;;;4.57;4.16;;;;;;;16.45;70.29;99399.69;365135;145;857274;-60
2021/06/09 03:38:49;;;;;;;4.79;4.20;;;;;;;16.64;69.49;99397.17;363862;145;857363;-59
2021/06/09 03:39:51;;;;;;;4.46;4.03;;;;;;;;;;362918;147;859219;-59
2021/06/09 03:40:58;;;;;;;9.25;4.75;;;;;;;;;;362849;144;858938;-59
2021/06/09 03:42:00;;;;;;;6.06;4.80;;;;;;;;;;364065;145;860667;-58
2021/06/09 03:43:02;;;;;;;6.16;4.96;;;;;;;;;;364285;147;860170;-59
2021/06/09 03:44:04;;;;;;;8.43;5.08;;;;;;;;;;363267;145;864825;-59
2021/06/09 03:45:06;;;;;;;6.57;5.27;;;;;;;;;;364077;145;864832;-59
2021/06/09 03:46:09;;;;;;;6.13;5.33;;;;;;;;;;362045;147;868265;-59
2021/06/09 03:47:11;;;;;;;6.68;5.28;;;;;;;;;;363522;145;858781;-59
2021/06/09 03:48:14;;;;;;;7.74;5.91;;;;;;;;;;363390;148;868408;-58
2021/06/09 03:49:15;;;;;;;8.10;5.80;;;;;;;;;;363405;146;857523;-58
2021/06/09 03:50:18;;;;;;;7.23;5.48;;;;;;;;;;362943;145;859137;-57
2021/06/09 03:51:19;;;;;;;5.97;5.36;;;;;;;;;;362203;147;858856;-56
2021/06/09 03:52:21;;;;;;;10.23;5.97;;;;;;;;;;362041;146;865312;-57
2021/06/09 03:53:23;;;;;;;6.09;5.49;;;;;;;;;;363053;145;857222;-58
2021/06/09 03:54:29;;;;;;;7.63;5.89;;;;;;;;;;364658;146;857127;-57
2021/06/09 03:55:28;;;;;;;6.41;5.85;;;;;;;;;;363232;145;864853;-57
2021/06/09 03:56:30;;;;;;;6.30;5.70;;;;;;;;;;361911;147;857351;-57
2021/06/09 03:57:32;;;;;;;9.63;6.24;;;;;;;;;;363502;147;857322;-58
2021/06/09 03:58:33;;;;;;;8.72;6.30;;;;;;;;;;362808;145;858875;-56
2021/06/09 03:59:35;;;;;;;8.21;6.37;;;;;;;;;;362509;147;857341;-57
2021/06/09 04:00:37;;;;;;;6.67;5.99;;;;;;;;;;362497;145;858999;-57
2021/06/09 04:01:40;;;;;;;7.78;6.24;;;;;;;;;;361941;145;859309;-57
2021/06/09 04:02:42;;;;;;;7.98;6.11;;;;;;;;;;360725;148;864938;-57
2021/06/09 04:03:44;;;;;;;7.18;6.32;;;;;;;;;;360959;145;865028;-57
2021/06/09 04:04:45;;;;;;;9.28;6.31;;;;;;;;;;364382;145;857277;-57
2021/06/09 04:05:47;;;;;;;7.09;6.39;;;;;;;;;;365070;145;857174;-60
2021/06/09 04:06:49;;;;;;;9.36;6.91;;;;;;;;;;364320;145;858513;-56
2021/06/09 04:07:51;;;;;;;10.75;6.85;;;;;;;;;;364403;145;865777;-57
2021/06/09 04:08:53;;;;;;;9.56;7.03;;;;;;;;;;365697;145;858252;-57
2021/06/09 04:09:55;;;;;;;8.08;7.15;;;;;;;;;;364118;145;859559;-58
2021/06/09 04:10:57;;;;;;;7.23;6.55;;;;;;;;;;363391;145;858565;-58
2021/06/09 04:12:00;;;;;;;7.63;6.77;;;;;;;;;;365764;145;859866;-58
2021/06/09 04:13:01;;;;;;;8.06;6.17;;;;;;;;;;363828;145;857589;-57
2021/06/09 04:14:03;;;;;;;9.05;6.90;;;;;;;;;;364416;145;859986;-59
2021/06/09 04:15:05;;;;;;;7.67;6.69;;;;;;;;;;363825;145;857282;-58
2021/06/09 04:16:08;;;;;;;7.54;6.76;;;;;;;;;;364370;145;857264;-58
2021/06/09 04:17:10;;;;;;;12.44;6.93;;;;;;;;;;364791;146;859843;-58
2021/06/09 04:18:12;;;;;;;7.76;6.89;;;;;;;;;;362832;145;857366;-58
2021/06/09 04:19:14;;;;;;;8.09;6.85;;;;;;;;;;359510;148;866843;-59
2021/06/09 04:20:21;;;;;;;8.91;7.08;;;;;;;;;;355917;147;857605;-57
2021/06/09 04:21:26;;;;;;;8.60;6.97;;;;;;;;;;362528;145;859692;-58
2021/06/09 04:22:28;;;;;;;9.52;6.92;;;;;;;;;;366054;145;858842;-58
2021/06/09 04:23:29;;;;;;;9.17;7.38;;;;;;;;;;363236;146;857178;-60
2021/06/09 04:24:34;;;;;;;9.26;7.49;;;;;;;;;;364464;144;858050;-62
2021/06/09 04:25:36;;;;;;;13.23;7.49;;;;;;;;;;363099;147;864885;-58
2021/06/09 04:26:38;;;;;;;9.67;7.28;;;;;;;;;;363930;145;858501;-58
2021/06/09 04:27:43;;;;;;;10.06;8.11;;;;;;;;;;362096;144;857291;-58
2021/06/09 04:28:44;;;;;;;8.11;7.31;;;;;;;;;;362854;145;865940;-58
2021/06/09 04:29:46;;;;;;;8.29;7.49;;;;;;;;;;362248;145;858729;-58
2021/06/09 04:30:48;;;;;;;8.37;7.43;;;;;;;;;;361670;144;857801;-59
2021/06/09 04:31:49;;;;;;;8.96;7.82;;;;;;;;;;353843;148;859270;-58
2021/06/09 04:32:55;;;;;;;11.32;7.46;;;;;;;;;;356888;147;857150;-59
2021/06/09 04:33:57;;;;;;;9.47;7.82;;;;;;;;;;365530;145;858372;-59
2021/06/09 04:34:59;;;;;;;8.39;7.29;;;;;;;;;;363127;145;857277;-59
2021/06/09 04:36:00;;;;;;;8.16;7.38;;;;;;;;;;364415;146;864913;-63
2021/06/09 04:37:02;;;;;;;11.49;8.14;;;;;;;;;;361978;147;857230;-61
2021/06/09 04:38:04;;;;;;;11.57;8.40;;;;;;;;;;356474;147;856315;-59
2021/06/09 04:39:06;;;;;;;8.73;7.81;;;;;;;;;;354792;147;856263;-58
2021/06/09 04:40:16;;;;;;;9.56;8.43;;;;;;;;;;362620;144;857211;-58
2021/06/09 04:41:18;;;;;;;11.39;8.64;;;;;;;;;;362803;145;857329;-59
2021/06/09 04:42:21;;;;;;;9.99;8.66;;;;;;;;;;362094;147;858043;-59
2021/06/09 04:43:23;;;;;;;10.80;7.95;;;;;;;;;;364053;145;857271;-60
2021/06/09 04:44:24;;;;;;;9.71;8.03;;;;;;;;;;363629;145;859243;-58
2021/06/09 04:45:27;;;;;;;10.99;8.38;;;;;;;;;;363947;145;857201;-59
2021/06/09 04:46:29;;;;;;;9.06;8.12;;;;;;;;;;362818;145;857219;-58
2021/06/09 04:47:31;;;;;;;11.30;8.03;;;;;;;;;;363770;145;857234;-58
2021/06/09 04:48:33;;;;;;;9.30;8.13;;;;;;;;;;362757;148;857814;-58
2021/06/09 04:49:36;;;;;;;9.44;8.44;;;;;;;;;;363925;144;857279;-59
2021/06/09 04:50:40;;;;;;;10.50;8.31;;;;;;;;;;361204;147;866850;-59
2021/06/09 04:51:42;;;;;;;8.71;7.77;;;;;;;;;;363838;146;857422;-56
2021/06/09 04:52:43;;;;;;;10.27;8.67;;;;;;;;;;362829;145;859264;-59
2021/06/09 04:53:45;;;;;;;9.61;8.67;;;;;;;;;;362728;146;862736;-59
2021/06/09 04:54:46;;;;;;;11.83;8.56;;;;;;;;;;363459;145;866468;-59
2021/06/09 04:55:49;;;;;;;10.50;8.76;;;;;;;;;;363096;145;858577;-59
2021/06/09 04:56:51;;;;;;;12.34;9.75;;;;;;;;;;362143;146;857201;-58
2021/06/09 04:57:52;;;;;;;12.96;9.70;;;;;;;;;;362868;145;865019;-61
2021/06/09 04:58:55;;;;;;;11.01;9.40;;;;;;;;;;363398;145;866869;-58
2021/06/09 04:59:57;;;;;;;10.64;9.21;;;;;;;;;;364974;144;857198;-57
2021/06/09 05:00:59;;;;;;;12.92;9.61;;;;;;;;;;364846;144;857182;-57
2021/06/09 05:02:00;;;;;;;12.51;8.91;;;;;;;;;;363255;145;866604;-57
2021/06/09 05:03:02;;;;;;;12.25;9.29;;;;;;;;;;362428;147;865580;-57
2021/06/09 05:04:04;;;;;;;11.95;9.42;;;;;;;;;;363704;145;857391;-57
2021/06/09 05:05:06;;;;;;;11.42;9.19;;;;;;;;;;367623;145;867336;-58
2021/06/09 05:06:08;;;;;;;13.43;9.39;;;;;;;;;;363056;144;864960;-58
2021/06/09 05:07:10;;;;;;;10.62;9.52;;;;;;;;;;363233;145;860172;-58
2021/06/09 05:08:11;;;;;;;12.76;9.74;;;;;;;;;;363197;145;857880;-56
2021/06/09 05:09:13;;;;;;;12.15;9.12;;;;;;;;;;361289;145;857270;-57
2021/06/09 05:10:15;;;;;;;15.71;9.81;;;;;;;;;;362659;145;857267;-57
2021/06/09 05:11:18;;;;;;;11.51;9.59;;;;;;;;;;362964;144;857278;-57
2021/06/09 05:12:24;;;;;;;10.53;9.41;;;;;;;;;;364130;144;857360;-57
2021/06/09 05:13:27;;;;;;;11.22;9.43;;;;;;;;;;361730;145;857510;-56
2021/06/09 05:14:30;;;;;;;12.85;9.01;;;;;;;;;;355575;148;857648;-59
2021/06/09 05:15:34;;;;;;;10.67;9.35;;;;;;;;;;358058;145;865864;-58
2021/06/09 05:16:36;;;;;;;11.04;9.60;;;;;;;;;;361818;144;866301;-57
2021/06/09 05:17:39;;;;;;;12.53;9.39;;;;;;;;;;365055;144;859024;-58
2021/06/09 05:18:41;;;;;;;11.39;9.93;;;;;;;;;;363771;145;857828;-58
2021/06/09 05:19:43;;;;;;;10.09;9.02;;;;;;;;;;364578;144;857169;-58
2021/06/09 05:20:45;;;;;;;10.31;8.67;;;;;;;;;;368310;144;857168;-58
2021/06/09 05:21:47;;;;;;;11.44;9.04;;;;;;;;;;363419;145;857064;-61
2021/06/09 05:22:53;;;;;;;10.08;9.01;;;;;;;;;;362026;145;858355;-58
2021/06/09 05:23:55;;;;;;;10.37;8.81;;;;;;;;;;362798;145;857221;-58
2021/06/09 05:24:56;;;;;;;10.49;8.78;;;;;;;;;;362732;145;858726;-58
2021/06/09 05:25:58;;;;;;;11.79;8.77;;;;;;;;;;361386;144;857368;-59
2021/06/09 05:27:00;;;;;;;12.77;9.51;;;;;;;;;;363691;145;858077;-58
2021/06/09 05:28:02;;;;;;;16.82;9.00;;;;;;;;;;356798;148;858069;-58
2021/06/09 05:29:06;;;;;;;12.55;9.14;;;;;;;;;;356467;148;865160;-58
2021/06/09 05:30:08;;;;;;;12.22;8.78;;;;;;;;;;360625;145;863799;-59
2021/06/09 05:31:10;;;;;;;10.53;9.27;;;;;;;;;;362852;145;857237;-59
2021/06/09 05:32:11;;;;;;;12.19;8.94;;;;;;;;;;360852;147;857767;-58
2021/06/09 05:33:13;;;;;;;9.59;8.48;;;;;;;;;;362308;145;857322;-58
2021/06/09 05:34:14;;;;;;;11.09;8.57;;;;;;;;;;361304;145;857320;-59
2021/06/09 05:35:16;;;;;;;12.19;7.99;;;;;;;;;;362506;147;857469;-59
2021/06/09 05:36:19;;;;;;;10.59;7.83;;;;;;;;;;363967;145;856590;-59
2021/06/09 05:37:21;;;;;;;10.00;7.73;;;;;;;;;;361009;147;857125;-58
2021/06/09 05:38:23;;;;;;;12.52;9.05;;;;;;;;;;359149;150;865317;-58
2021/06/09 05:39:24;;;;;;;11.17;8.90;;;;;;;;;;362647;145;857212;-57
2021/06/09 05:40:26;;;;;;;8.99;7.77;;;;;;;;;;363663;147;866671;-58
2021/06/09 05:41:28;;;;;;;9.10;8.14;;;;;;;;;;362708;146;857353;-57
2021/06/09 05:42:29;;;;;;;10.85;8.12;;;;;;;;;;363459;145;857199;-58
2021/06/09 05:43:31;;;;;;;10.69;7.91;;;;;;;;;;366688;145;866208;-58
2021/06/09 05:44:33;;;;;;;8.41;7.05;;;;;;;;;;364498;145;858159;-60
2021/06/09 05:45:36;;;;;;;11.77;7.77;;;;;;;;;;363932;145;857311;-58
2021/06/09 05:46:38;;;;;;;8.71;7.64;;;;;;;;;;362503;144;863896;-59
2021/06/09 05:47:42;;;;;;;8.21;6.58;;;;;;;;;;361919;145;857270;-58
2021/06/09 05:48:44;;;;;;;8.58;7.05;;;;;;;;;;364340;144;858180;-58
2021/06/09 05:49:46;;;;;;;9.74;6.87;;;;;;;;;;363335;146;857200;-57
2021/06/09 05:50:50;;;;;;;9.47;7.11;;;;;;;;;;362478;145;859573;-59
2021/06/09 05:51:52;;;;;;;9.13;6.92;;;;;;;;;;364824;145;858926;-57
2021/06/09 05:52:56;;;;;;;9.97;6.85;;;;;;;;;;364053;146;857315;-61
2021/06/09 05:53:58;;;;;;;12.05;7.49;;;;;;;;;;362995;145;857308;-57
2021/06/09 05:55:00;;;;;;;10.27;7.90;;;;;;;;;;356004;150;857638;-59
2021/06/09 05:56:01;;;;;;;8.10;6.77;;;;;;;;;;363505;146;859443;-59
2021/06/09 05:57:04;;;;;;;8.65;7.06;;;;;;;;;;365052;145;864947;-59
2021/06/09 05:58:05;;;;;;;8.47;6.96;;;;;;;;;;364190;146;857254;-58
2021/06/09 05:59:07;;;;;;;8.14;6.26;;;;;;;;;;366072;146;857741;-58
2021/06/09 06:00:09;;;;;;;7.30;6.42;;;;;;;;;;362327;145;864890;-58
2021/06/09 06:01:11;;;;;;;6.93;6.21;;;;;;;;;;359275;149;857406;-58
2021/06/09 06:02:13;;;;;;;6.53;5.93;;;;;;;;;;360003;145;860420;-59
2021/06/09 06:03:15;;;;;;;6.14;5.54;;;;;;;;;;360944;145;858003;-58
2021/06/09 06:04:16;;;;;;;6.34;5.74;;;;;;;;;;359309;147;858417;-58
2021/06/09 06:05:18;;;;;;;9.31;5.82;;;;;;;;;;363544;145;857304;-58
2021/06/09 06:06:20;;;;;;;7.33;5.46;;;;;;;;;;362884;144;857375;-59
2021/06/09 06:07:22;;;;;;;7.28;4.95;;;;;;;;;;359297;150;857171;-58
2021/06/09 06:08:25;;;;;;;7.64;5.06;;;;;;;;;;356601;148;857301;-58
2021/06/09 06:09:27;;;;;;;9.04;4.71;;;;;;;;;;356623;147;857213;-57
2021/06/09 06:10:30;;;;;;;6.96;4.42;;;;;;;;;;365747;146;858056;-59
2021/06/09 06:11:32;;;;;;;5.83;4.33;;;;;;;;;;364652;145;859029;-60
2021/06/09 06:12:35;;;;;;;5.32;4.25;;;;;;;;;;362508;145;859046;-58
2021/06/09 06:13:36;;;;;;;4.89;4.15;;;;;;;;;;360937;145;859173;-58
2021/06/09 06:14:38;;;;;;;6.23;4.19;;;;;;;;;;364001;145;857409;-58
2021/06/09 06:15:40;;;;;;;5.07;4.32;;;;;;;;;;363031;146;857271;-58
2021/06/09 06:16:55;;;;;;;5.46;4.65;;;;;;;;;;361998;145;857188;-58
2021/06/09 06:17:56;;;;;;;6.02;5.06;;;;;;;;;;362536;145;857737;-58
2021/06/09 06:18:58;;;;;;;6.61;4.55;;;;;;;;;;365216;147;857245;-60